CheckWX is a tool to help pilots better visualize weather data.  It is not intended as a substitute for an official pre-flight weather briefing.

21:41:01 UTC

K5SM METAR
Sunlight
Sunlight Mountain, Colorado, USA
Current

10 mins ago

K5SM 142131Z AUTO 24007G21KT 130V290 10SM BKN085 BKN090 BKN110 21/00 A3049 RMK AO2 LTG DSNT NE SE AND SW
Observed
Jul-14 @ 21:31 UTC
Wind
  • 240° at 7 KTS
  • Gusting to 21 KTS
Visibility
10 SM
Flight Rules
VFR
Cloud Levels
  • Broken at 8,500' AGL
  • Broken at 9,000' AGL
  • Broken at 11,000' AGL
Temperature
21°C / 70°F
Dewpoint
C / 32°F
Humidity
25%
Altimeter
30.49" Hg
Pressure
1032.52 hPa
Previous

27 mins ago

K5SM 142114Z AUTO 24007G20KT 210V360 10SM VCTS BKN085 BKN120 22/00 A3049 RMK AO2 LTG DSNT N THRU S
Observed
Jul-14 @ 21:14 UTC
Wind
  • 240° at 7 KTS
  • Gusting to 20 KTS
Visibility
10 SM
Flight Rules
VFR
Conditions
Area Thunderstorm
Cloud Levels
  • Broken at 8,500' AGL
  • Broken at 12,000' AGL
Temperature
22°C / 72°F
Dewpoint
C / 32°F
Humidity
23%
Altimeter
30.49" Hg
Pressure
1032.52 hPa
Previous

48 mins ago

K5SM 142053Z AUTO 24006G18KT 10SM SCT075 SCT095 22/01 A3049 RMK AO2 LTG DSNT N AND SE
Observed
Jul-14 @ 20:53 UTC
Wind
  • 240° at 6 KTS
  • Gusting to 18 KTS
Visibility
10 SM
Flight Rules
VFR
Cloud Levels
  • Scattered at 7,500' AGL
  • Scattered at 9,500' AGL
Temperature
22°C / 72°F
Dewpoint
C / 34°F
Humidity
25%
Altimeter
30.49" Hg
Pressure
1032.52 hPa